createdAt,value
2022-10-02T00:01:44.339Z,22.20
2022-10-02T00:04:17.159Z,22.20
2022-10-02T00:06:48.908Z,22.20
2022-10-02T00:09:25.461Z,22.20
2022-10-02T00:11:58.796Z,22.20
2022-10-02T00:14:29.868Z,22.10
2022-10-02T00:17:00.933Z,22.10
2022-10-02T00:19:29.380Z,22.10
2022-10-02T00:22:22.965Z,22.10
2022-10-02T00:24:57.904Z,22.10
2022-10-02T00:27:40.261Z,22.00
2022-10-02T00:30:13.130Z,22.00
2022-10-02T00:32:55.440Z,22.00
2022-10-02T00:35:50.748Z,22.00
2022-10-02T00:38:30.128Z,21.90
2022-10-02T00:41:36.204Z,21.90
2022-10-02T00:44:26.950Z,21.90
2022-10-02T00:46:59.289Z,21.90
2022-10-02T00:50:04.192Z,21.90
2022-10-02T00:52:59.376Z,21.90
2022-10-02T00:55:39.964Z,21.80
2022-10-02T00:58:37.417Z,21.80
2022-10-02T01:01:11.761Z,21.80
2022-10-02T01:03:41.757Z,21.80
2022-10-02T01:06:10.678Z,21.80
2022-10-02T01:08:39.184Z,21.80
2022-10-02T01:11:08.510Z,21.70
2022-10-02T01:13:37.023Z,21.70
2022-10-02T01:16:11.818Z,21.70
2022-10-02T01:18:40.128Z,21.70
2022-10-02T01:21:13.958Z,21.70
2022-10-02T01:23:51.683Z,21.70
2022-10-02T01:26:21.741Z,21.60
2022-10-02T01:28:49.843Z,21.60
2022-10-02T01:31:18.884Z,21.60
2022-10-02T01:33:49.534Z,21.60
2022-10-02T01:36:18.300Z,21.60
2022-10-02T01:38:48.695Z,21.60
2022-10-02T01:41:16.802Z,21.50
2022-10-02T01:43:50.453Z,21.60
2022-10-02T01:46:32.941Z,21.60
2022-10-02T01:49:15.072Z,21.50
2022-10-02T01:52:14.193Z,21.50
2022-10-02T01:54:53.036Z,21.50
2022-10-02T01:57:31.621Z,21.50
2022-10-02T02:00:08.764Z,21.60
2022-10-02T02:02:45.267Z,21.60
2022-10-02T02:05:23.321Z,21.60
2022-10-02T02:07:59.304Z,21.60
2022-10-02T02:10:36.227Z,21.50
2022-10-02T02:13:08.540Z,21.50
2022-10-02T02:15:41.348Z,21.50
2022-10-02T02:18:18.345Z,21.50
2022-10-02T02:20:52.552Z,21.50
2022-10-02T02:23:26.549Z,21.50
2022-10-02T02:26:00.697Z,21.50
2022-10-02T02:28:31.764Z,21.50
2022-10-02T02:31:04.105Z,21.50
2022-10-02T02:33:37.935Z,21.50
2022-10-02T02:36:11.104Z,21.40
2022-10-02T02:38:42.449Z,21.40
2022-10-02T02:41:15.346Z,21.50
2022-10-02T02:43:47.752Z,21.40
2022-10-02T02:46:23.206Z,21.40
2022-10-02T02:48:57.976Z,21.40
2022-10-02T02:51:31.867Z,21.40
2022-10-02T02:54:05.936Z,21.40
2022-10-02T02:56:35.176Z,21.30
2022-10-02T02:59:08.346Z,21.40
2022-10-02T03:01:37.994Z,21.40
2022-10-02T03:04:06.138Z,21.40
2022-10-02T03:06:37.765Z,21.30
2022-10-02T03:09:09.085Z,21.30
2022-10-02T03:11:49.154Z,21.40
2022-10-02T03:14:40.662Z,21.40
2022-10-02T03:17:22.009Z,21.50
2022-10-02T03:19:58.039Z,21.50
2022-10-02T03:22:35.609Z,21.50
2022-10-02T03:25:12.283Z,21.40
2022-10-02T03:27:46.598Z,21.50
2022-10-02T03:30:20.626Z,21.50
2022-10-02T03:32:53.660Z,21.40
2022-10-02T03:35:23.698Z,21.40
2022-10-02T03:37:52.834Z,21.40
2022-10-02T03:40:24.642Z,21.40
2022-10-02T03:42:53.950Z,21.40
2022-10-02T03:45:39.326Z,21.40
2022-10-02T03:48:11.524Z,21.40
2022-10-02T03:50:40.125Z,21.30
2022-10-02T03:53:13.979Z,21.30
2022-10-02T03:55:46.353Z,21.30
2022-10-02T03:58:16.514Z,21.30
2022-10-02T04:00:50.836Z,21.30
2022-10-02T04:03:25.362Z,21.30
2022-10-02T04:05:59.454Z,21.30
2022-10-02T04:08:32.452Z,21.30
2022-10-02T04:11:06.893Z,21.30
2022-10-02T04:13:39.990Z,21.20
2022-10-02T04:16:16.659Z,21.30
2022-10-02T04:18:55.291Z,21.30
2022-10-02T04:21:36.464Z,21.30
2022-10-02T04:24:13.677Z,21.20
2022-10-02T04:26:47.309Z,21.20
2022-10-02T04:29:21.593Z,21.30
2022-10-02T04:31:54.992Z,21.20
2022-10-02T04:34:24.492Z,21.20
2022-10-02T04:37:12.250Z,21.20
2022-10-02T04:39:56.964Z,21.20
2022-10-02T04:42:37.067Z,21.20
2022-10-02T04:45:23.370Z,21.20
2022-10-02T04:48:20.272Z,21.20
2022-10-02T04:50:57.868Z,21.20
2022-10-02T04:53:59.404Z,21.20
2022-10-02T04:56:55.291Z,21.20
2022-10-02T04:59:36.663Z,21.20
2022-10-02T05:02:22.397Z,21.20
2022-10-02T05:05:09.546Z,21.20
2022-10-02T05:08:06.121Z,21.10
2022-10-02T05:10:54.486Z,21.20
2022-10-02T05:13:38.422Z,21.10
2022-10-02T05:16:29.383Z,21.10
2022-10-02T05:19:21.706Z,21.10
2022-10-02T05:22:14.886Z,21.10
2022-10-02T05:24:59.055Z,21.10
2022-10-02T05:27:43.037Z,21.10
2022-10-02T05:30:14.794Z,21.10
2022-10-02T05:33:01.490Z,21.10
2022-10-02T05:35:51.109Z,21.10
2022-10-02T05:38:32.098Z,21.10
2022-10-02T05:41:05.816Z,21.10
2022-10-02T05:43:40.878Z,21.10
2022-10-02T05:46:14.236Z,21.10
2022-10-02T05:48:46.258Z,21.10
2022-10-02T05:51:22.084Z,21.10
2022-10-02T05:53:58.127Z,21.00
2022-10-02T05:56:34.550Z,21.00
2022-10-02T05:59:08.704Z,21.00
2022-10-02T06:01:40.968Z,21.10
2022-10-02T06:04:14.246Z,21.10
2022-10-02T06:06:48.008Z,21.20
2022-10-02T06:09:20.441Z,21.30
2022-10-02T06:11:56.980Z,21.30
2022-10-02T06:14:31.910Z,21.40
2022-10-02T06:17:05.290Z,21.40
2022-10-02T06:19:38.477Z,21.40
2022-10-02T06:22:12.426Z,21.30
2022-10-02T06:24:48.473Z,21.20
2022-10-02T06:27:28.035Z,21.20
2022-10-02T06:29:59.930Z,21.30
2022-10-02T06:32:34.664Z,21.40
2022-10-02T06:35:07.714Z,21.50
2022-10-02T06:37:51.104Z,21.50
2022-10-02T06:40:45.775Z,21.60
2022-10-02T06:43:27.511Z,21.60
2022-10-02T06:46:03.876Z,21.50
2022-10-02T06:48:40.729Z,21.50
2022-10-02T06:51:17.383Z,21.50
2022-10-02T06:54:19.139Z,21.50
2022-10-02T06:57:07.865Z,21.70
2022-10-02T06:59:52.918Z,21.70
2022-10-02T07:02:42.632Z,21.80
2022-10-02T07:05:47.972Z,21.90
2022-10-02T07:08:27.643Z,22.00
2022-10-02T07:11:05.384Z,22.10
2022-10-02T07:13:45.353Z,22.00
2022-10-02T07:16:23.625Z,22.10
2022-10-02T07:19:14.221Z,22.10
2022-10-02T07:21:52.604Z,22.00
2022-10-02T07:24:37.970Z,22.00
2022-10-02T07:27:15.033Z,21.90
2022-10-02T07:29:51.966Z,21.90
2022-10-02T07:32:47.791Z,22.10
2022-10-02T07:35:39.691Z,22.40
2022-10-02T07:38:21.644Z,22.70
2022-10-02T07:41:00.550Z,22.80
2022-10-02T07:43:41.700Z,22.80
2022-10-02T07:46:17.050Z,22.90
2022-10-02T07:49:03.844Z,23.00
2022-10-02T07:51:50.071Z,22.90
2022-10-02T07:54:41.692Z,22.70
2022-10-02T07:57:23.399Z,22.50
2022-10-02T07:59:55.624Z,22.50
2022-10-02T08:02:29.864Z,22.50
2022-10-02T08:05:04.725Z,22.60
2022-10-02T08:07:33.704Z,22.70
2022-10-02T08:10:07.364Z,22.80
2022-10-02T08:12:41.135Z,22.70
2022-10-02T08:15:16.263Z,22.60
2022-10-02T08:17:49.963Z,22.50
2022-10-02T08:20:29.152Z,22.50
2022-10-02T08:23:04.434Z,22.50
2022-10-02T08:25:38.947Z,22.60
2022-10-02T08:28:12.608Z,22.80
2022-10-02T08:30:40.733Z,23.10
2022-10-02T08:33:17.569Z,23.70
2022-10-02T08:36:21.142Z,24.10
2022-10-02T08:38:54.763Z,24.00
2022-10-02T08:42:04.329Z,24.30
2022-10-02T08:45:14.876Z,24.50
2022-10-02T08:48:23.647Z,24.90
2022-10-02T08:51:33.505Z,24.90
2022-10-02T08:54:14.043Z,24.90
2022-10-02T08:57:08.235Z,24.80
2022-10-02T09:00:05.540Z,24.60
2022-10-02T09:03:13.305Z,24.50
2022-10-02T09:06:11.936Z,24.50
2022-10-02T09:09:20.082Z,24.60
2022-10-02T09:12:26.296Z,24.60
2022-10-02T09:14:59.968Z,24.70
2022-10-02T09:17:48.393Z,24.60
2022-10-02T09:20:45.041Z,24.50
2022-10-02T09:23:59.365Z,24.60
2022-10-02T09:26:37.509Z,24.70
2022-10-02T09:29:48.803Z,24.90
2022-10-02T09:32:52.439Z,25.10
2022-10-02T09:35:48.496Z,25.30
2022-10-02T09:38:45.791Z,26.20
2022-10-02T09:42:00.835Z,25.80
2022-10-02T09:45:02.285Z,27.80
2022-10-02T09:48:04.949Z,27.30
2022-10-02T09:51:07.981Z,27.70
2022-10-02T09:54:19.273Z,27.70
2022-10-02T09:57:22.344Z,27.50
2022-10-02T10:00:29.475Z,27.60
2022-10-02T10:03:36.619Z,27.40
2022-10-02T10:06:43.625Z,28.90
2022-10-02T10:09:40.593Z,29.20
2022-10-02T10:12:49.489Z,29.00
2022-10-02T10:15:57.796Z,29.60
2022-10-02T10:21:58.701Z,28.00
2022-10-02T10:25:10.796Z,26.60
2022-10-02T10:28:26.437Z,26.70
2022-10-02T10:31:20.518Z,27.50
2022-10-02T10:34:29.132Z,27.70
2022-10-02T10:37:20.549Z,29.00
2022-10-02T10:40:28.544Z,29.10
2022-10-02T10:43:16.601Z,29.00
2022-10-02T10:46:02.849Z,28.90
2022-10-02T10:48:47.143Z,28.70
2022-10-02T10:51:30.634Z,29.30
2022-10-02T10:54:29.765Z,30.00
2022-10-02T10:57:04.534Z,28.90
2022-10-02T10:59:48.452Z,30.00
2022-10-02T11:02:35.848Z,30.70
2022-10-02T11:05:16.083Z,31.80
2022-10-02T11:07:50.455Z,32.80
2022-10-02T11:10:22.581Z,33.70
2022-10-02T11:13:03.161Z,34.30
2022-10-02T11:15:45.888Z,34.70
2022-10-02T11:18:35.474Z,35.40
2022-10-02T11:21:15.216Z,35.70
2022-10-02T11:23:53.456Z,36.20
2022-10-02T11:26:28.380Z,36.30
2022-10-02T11:29:16.957Z,36.00
2022-10-02T11:31:57.000Z,35.40
2022-10-02T11:34:50.033Z,35.60
2022-10-02T11:37:31.590Z,36.10
2022-10-02T11:40:14.344Z,35.40
2022-10-02T11:43:00.636Z,34.50
2022-10-02T11:45:43.850Z,34.00
2022-10-02T11:48:33.359Z,34.20
2022-10-02T11:51:17.449Z,34.10
2022-10-02T11:54:05.950Z,34.70
2022-10-02T11:56:45.195Z,34.70
2022-10-02T11:59:23.969Z,34.60
2022-10-02T12:01:53.602Z,34.10
2022-10-02T12:04:30.295Z,33.70
2022-10-02T12:07:07.309Z,33.40
2022-10-02T12:09:42.181Z,33.10
2022-10-02T12:12:18.472Z,33.80
2022-10-02T12:14:50.468Z,34.00
2022-10-02T12:17:33.429Z,33.70
2022-10-02T12:20:24.753Z,33.90
2022-10-02T12:23:20.992Z,34.60
2022-10-02T12:26:10.309Z,34.90
2022-10-02T12:28:42.816Z,35.20
2022-10-02T12:31:15.210Z,35.50
2022-10-02T12:33:47.143Z,35.60
2022-10-02T12:36:24.917Z,35.70
2022-10-02T12:39:02.169Z,36.00
2022-10-02T12:41:41.769Z,36.60
2022-10-02T12:44:32.202Z,36.80
2022-10-02T12:47:11.017Z,37.00
2022-10-02T12:49:47.567Z,37.20
2022-10-02T12:52:34.468Z,37.10
2022-10-02T12:55:30.109Z,37.20
2022-10-02T12:58:06.334Z,37.20
2022-10-02T13:00:49.500Z,36.70
2022-10-02T13:03:34.234Z,36.20
2022-10-02T13:06:11.273Z,35.70
2022-10-02T13:08:48.449Z,36.20
2022-10-02T13:11:25.799Z,36.10
2022-10-02T13:14:00.578Z,35.90
2022-10-02T13:16:32.388Z,35.60
2022-10-02T13:19:05.745Z,35.70
2022-10-02T13:21:39.309Z,36.30
2022-10-02T13:24:17.669Z,36.90
2022-10-02T13:26:52.056Z,37.10
2022-10-02T13:29:30.293Z,37.30
2022-10-02T13:32:12.515Z,37.50
2022-10-02T13:34:46.881Z,38.00
2022-10-02T13:37:16.577Z,38.60
2022-10-02T13:40:05.318Z,39.10
2022-10-02T13:42:41.124Z,39.30
2022-10-02T13:45:12.829Z,39.50
2022-10-02T13:47:41.816Z,38.90
2022-10-02T13:50:17.894Z,38.20
2022-10-02T13:52:53.203Z,37.70
2022-10-02T13:55:23.738Z,37.20
2022-10-02T13:57:59.383Z,36.80
2022-10-02T14:00:42.468Z,36.40
2022-10-02T14:03:15.173Z,36.10
2022-10-02T14:05:44.987Z,36.10
2022-10-02T14:08:24.335Z,37.30
2022-10-02T14:10:57.700Z,38.40
2022-10-02T14:13:32.466Z,39.30
2022-10-02T14:16:08.462Z,39.90
2022-10-02T14:19:01.135Z,40.50
2022-10-02T14:21:32.702Z,41.20
2022-10-02T14:24:22.955Z,41.60
2022-10-02T14:27:01.536Z,42.00
2022-10-02T14:29:35.910Z,42.30
2022-10-02T14:32:19.134Z,41.90
2022-10-02T14:35:15.546Z,40.80
2022-10-02T14:38:08.646Z,39.80
2022-10-02T14:40:49.606Z,39.20
2022-10-02T14:43:40.472Z,38.90
2022-10-02T14:46:22.326Z,38.70
2022-10-02T14:49:25.566Z,38.60
2022-10-02T14:52:23.770Z,38.40
2022-10-02T14:55:09.192Z,38.10
2022-10-02T14:57:51.546Z,37.80
2022-10-02T15:00:22.495Z,37.40
2022-10-02T15:03:18.710Z,36.40
2022-10-02T15:06:08.940Z,35.50
2022-10-02T15:08:42.633Z,35.30
2022-10-02T15:11:23.787Z,35.40
2022-10-02T15:13:56.232Z,35.60
2022-10-02T15:16:45.479Z,35.00
2022-10-02T15:19:21.510Z,34.20
2022-10-02T15:21:56.428Z,33.20
2022-10-02T15:24:31.336Z,32.50
2022-10-02T15:27:12.417Z,31.90
2022-10-02T15:29:53.705Z,31.50
2022-10-02T15:32:37.215Z,31.10
2022-10-02T15:35:23.356Z,30.80
2022-10-02T15:38:07.850Z,30.40
2022-10-02T15:40:43.852Z,30.00
2022-10-02T15:43:39.238Z,29.70
2022-10-02T15:46:17.809Z,29.70
2022-10-02T15:49:11.259Z,29.80
2022-10-02T15:52:08.692Z,29.90
2022-10-02T15:54:55.204Z,29.90
2022-10-02T15:57:37.640Z,29.60
2022-10-02T16:00:14.531Z,29.30
2022-10-02T16:03:01.205Z,29.00
2022-10-02T16:05:44.676Z,28.70
2022-10-02T16:08:29.783Z,28.60
2022-10-02T16:11:16.582Z,28.40
2022-10-02T16:13:59.216Z,28.40
2022-10-02T16:16:52.780Z,28.20
2022-10-02T16:19:34.810Z,28.00
2022-10-02T16:22:18.088Z,27.80
2022-10-02T16:25:07.435Z,27.70
2022-10-02T16:27:54.037Z,27.80
2022-10-02T16:30:24.229Z,27.80
2022-10-02T16:33:21.035Z,27.60
2022-10-02T16:36:19.061Z,27.50
2022-10-02T16:38:51.436Z,27.30
2022-10-02T16:41:37.069Z,27.10
2022-10-02T16:44:23.803Z,27.00
2022-10-02T16:46:56.561Z,26.90
2022-10-02T16:49:32.303Z,26.80
2022-10-02T16:52:07.712Z,26.70
2022-10-02T16:54:44.968Z,26.70
2022-10-02T16:57:29.835Z,26.80
2022-10-02T17:00:06.647Z,26.80
2022-10-02T17:02:43.850Z,26.70
2022-10-02T17:05:24.682Z,26.70
2022-10-02T17:08:00.649Z,26.70
2022-10-02T17:10:42.515Z,26.70
2022-10-02T17:13:26.445Z,26.70
2022-10-02T17:15:59.846Z,26.70
2022-10-02T17:18:38.526Z,26.70
2022-10-02T17:21:14.689Z,26.60
2022-10-02T17:23:54.075Z,26.60
2022-10-02T17:26:31.032Z,26.60
2022-10-02T17:29:08.690Z,26.50
2022-10-02T17:31:46.314Z,26.50
2022-10-02T17:34:21.261Z,26.50
2022-10-02T17:37:07.814Z,26.50
2022-10-02T17:39:55.408Z,26.40
2022-10-02T17:42:32.841Z,26.40
2022-10-02T17:45:15.472Z,26.30
2022-10-02T17:47:56.733Z,26.30
2022-10-02T17:50:42.508Z,26.20
2022-10-02T17:53:45.681Z,26.10
2022-10-02T17:56:31.089Z,26.00
2022-10-02T17:59:18.841Z,26.00
2022-10-02T18:01:57.962Z,26.00
2022-10-02T18:04:36.535Z,26.00
2022-10-02T18:07:23.707Z,26.00
2022-10-02T18:10:05.006Z,26.00
2022-10-02T18:13:00.226Z,25.90
2022-10-02T18:15:43.146Z,25.90
2022-10-02T18:18:31.337Z,25.80
2022-10-02T18:21:21.218Z,25.80
2022-10-02T18:24:23.641Z,25.80
2022-10-02T18:27:18.545Z,25.70
2022-10-02T18:30:13.208Z,25.70
2022-10-02T18:33:31.886Z,25.60
2022-10-02T18:36:20.638Z,25.60
2022-10-02T18:38:59.920Z,25.60
2022-10-02T18:41:57.041Z,25.50
2022-10-02T18:44:49.950Z,25.50
2022-10-02T18:47:31.225Z,25.50
2022-10-02T18:50:10.940Z,25.50
2022-10-02T18:52:56.991Z,25.40
2022-10-02T18:55:51.294Z,25.40
2022-10-02T18:58:31.729Z,25.40
2022-10-02T19:01:19.107Z,25.40
2022-10-02T19:04:05.224Z,25.30
2022-10-02T19:06:35.992Z,25.40
2022-10-02T19:09:19.073Z,25.40
2022-10-02T19:11:57.705Z,25.40
2022-10-02T19:14:36.235Z,25.40
2022-10-02T19:17:08.767Z,25.40
2022-10-02T19:19:37.137Z,25.40
2022-10-02T19:22:18.750Z,25.30
2022-10-02T19:24:51.972Z,25.40
2022-10-02T19:27:34.408Z,25.40
2022-10-02T19:30:05.757Z,25.30
2022-10-02T19:32:40.487Z,25.30
2022-10-02T19:35:15.665Z,25.30
2022-10-02T19:37:47.112Z,25.30
2022-10-02T19:40:21.887Z,25.20
2022-10-02T19:42:53.419Z,25.20
2022-10-02T19:45:26.593Z,25.30
2022-10-02T19:47:59.775Z,25.20
2022-10-02T19:50:40.705Z,25.20
2022-10-02T19:53:23.182Z,25.20
2022-10-02T19:55:56.861Z,25.20
2022-10-02T19:58:33.234Z,25.10
2022-10-02T20:01:02.223Z,25.10
2022-10-02T20:03:33.274Z,25.10
2022-10-02T20:06:09.281Z,24.80
2022-10-02T20:08:41.969Z,24.60
2022-10-02T20:11:19.682Z,24.50
2022-10-02T20:13:51.945Z,24.50
2022-10-02T20:16:40.503Z,24.50
2022-10-02T20:19:15.739Z,24.50
2022-10-02T20:21:48.500Z,24.50
2022-10-02T20:24:25.452Z,24.50
2022-10-02T20:27:01.613Z,24.50
2022-10-02T20:29:36.804Z,24.50
2022-10-02T20:32:09.200Z,24.40
2022-10-02T20:34:43.454Z,24.40
2022-10-02T20:37:16.526Z,24.30
2022-10-02T20:39:50.262Z,24.40
2022-10-02T20:42:24.111Z,24.40
2022-10-02T20:44:52.447Z,24.40
2022-10-02T20:47:59.826Z,24.40
2022-10-02T20:50:53.733Z,24.40
2022-10-02T20:54:08.436Z,24.30
2022-10-02T20:57:13.867Z,24.10
2022-10-02T21:00:09.904Z,24.00
2022-10-02T21:03:18.304Z,24.00
2022-10-02T21:06:24.384Z,24.00
2022-10-02T21:09:29.106Z,24.00
2022-10-02T21:12:37.125Z,24.00
2022-10-02T21:15:29.105Z,23.90
2022-10-02T21:18:30.957Z,23.90
2022-10-02T21:21:31.687Z,24.00
2022-10-02T21:24:24.242Z,24.00
2022-10-02T21:27:18.057Z,24.00
2022-10-02T21:30:11.079Z,24.00
2022-10-02T21:33:03.268Z,23.90
2022-10-02T21:35:45.164Z,23.90
2022-10-02T21:38:42.880Z,23.90
2022-10-02T21:41:48.620Z,23.80
2022-10-02T21:45:07.884Z,23.80
2022-10-02T21:47:55.986Z,23.70
2022-10-02T21:50:47.026Z,23.70
2022-10-02T21:53:57.663Z,23.70
2022-10-02T21:56:55.792Z,23.70
2022-10-02T21:59:55.650Z,23.60
2022-10-02T22:02:45.888Z,23.60
2022-10-02T22:06:06.794Z,23.50
2022-10-02T22:08:42.718Z,23.50
2022-10-02T22:11:19.733Z,23.50
2022-10-02T22:13:50.731Z,23.50
2022-10-02T22:16:34.504Z,23.40
2022-10-02T22:19:14.774Z,23.40
2022-10-02T22:22:04.674Z,23.40
2022-10-02T22:24:58.233Z,23.40
2022-10-02T22:28:02.349Z,23.40
2022-10-02T22:30:32.134Z,23.30
2022-10-02T22:33:17.437Z,23.30
2022-10-02T22:36:13.948Z,23.30
2022-10-02T22:38:47.787Z,23.20
2022-10-02T22:41:24.224Z,23.20
2022-10-02T22:43:55.965Z,23.20
2022-10-02T22:46:40.450Z,23.10
2022-10-02T22:49:19.707Z,23.10
2022-10-02T22:51:57.989Z,23.10
2022-10-02T22:54:36.460Z,23.10
2022-10-02T22:57:15.415Z,23.00
2022-10-02T22:59:50.690Z,23.00
2022-10-02T23:02:24.030Z,23.00
2022-10-02T23:04:59.832Z,23.00
2022-10-02T23:07:36.020Z,22.90
2022-10-02T23:10:17.286Z,22.90
2022-10-02T23:12:55.942Z,22.90
2022-10-02T23:15:32.771Z,22.90
2022-10-02T23:18:05.138Z,22.80
2022-10-02T23:20:37.959Z,22.80
2022-10-02T23:23:15.323Z,22.80
2022-10-02T23:25:51.247Z,22.70
2022-10-02T23:28:26.350Z,22.70
2022-10-02T23:31:06.221Z,22.70
2022-10-02T23:33:40.056Z,22.70
2022-10-02T23:36:19.831Z,22.60
2022-10-02T23:38:53.376Z,22.60
2022-10-02T23:41:46.829Z,22.60
2022-10-02T23:44:25.606Z,22.60
2022-10-02T23:47:40.769Z,22.60
2022-10-02T23:50:22.835Z,22.50
2022-10-02T23:53:20.307Z,22.60
2022-10-02T23:56:01.451Z,22.50
2022-10-02T23:58:54.843Z,22.60
